createdAt,value
2023-03-11T00:00:56.799Z,8.75
2023-03-11T00:03:29.619Z,8.67
2023-03-11T00:06:01.991Z,8.59
2023-03-11T00:08:31.318Z,8.53
2023-03-11T00:11:00.793Z,8.47
2023-03-11T00:13:30.036Z,8.39
2023-03-11T00:16:00.876Z,8.34
2023-03-11T00:18:31.708Z,8.30
2023-03-11T00:21:01.309Z,8.23
2023-03-11T00:23:30.321Z,8.17
2023-03-11T00:26:01.304Z,8.11
2023-03-11T00:28:30.460Z,8.06
2023-03-11T00:30:59.940Z,8.00
2023-03-11T00:33:29.661Z,7.93
2023-03-11T00:35:58.688Z,7.88
2023-03-11T00:38:27.939Z,7.86
2023-03-11T00:40:56.469Z,7.81
2023-03-11T00:43:25.692Z,7.76
2023-03-11T00:45:54.377Z,7.74
2023-03-11T00:48:22.955Z,7.74
2023-03-11T00:50:52.028Z,7.72
2023-03-11T00:53:20.781Z,7.71
2023-03-11T00:55:49.432Z,7.69
2023-03-11T00:58:18.822Z,7.68
2023-03-11T01:00:50.152Z,7.68
2023-03-11T01:03:18.611Z,7.68
2023-03-11T01:05:48.179Z,7.68
2023-03-11T01:08:16.733Z,7.69
2023-03-11T01:10:45.240Z,7.67
2023-03-11T01:13:14.071Z,7.67
2023-03-11T01:15:43.109Z,7.65
2023-03-11T01:18:11.741Z,7.67
2023-03-11T01:20:40.389Z,7.65
2023-03-11T01:23:09.307Z,7.64
2023-03-11T01:25:38.961Z,7.65
2023-03-11T01:28:08.616Z,7.68
2023-03-11T01:30:38.885Z,7.69
2023-03-11T01:33:09.740Z,7.65
2023-03-11T01:35:42.494Z,7.64
2023-03-11T01:38:11.971Z,7.62
2023-03-11T01:40:43.597Z,7.62
2023-03-11T01:43:54.669Z,7.64
2023-03-11T01:46:52.520Z,7.66
2023-03-11T01:49:25.355Z,7.66
2023-03-11T01:52:08.102Z,7.64
2023-03-11T01:54:42.502Z,7.64
2023-03-11T01:57:14.345Z,7.64
2023-03-11T01:59:51.338Z,7.64
2023-03-11T02:02:31.343Z,7.66
2023-03-11T02:05:02.611Z,7.63
2023-03-11T02:07:31.593Z,7.62
2023-03-11T02:10:02.153Z,7.60
2023-03-11T02:12:35.587Z,7.58
2023-03-11T02:15:07.009Z,7.57
2023-03-11T02:17:37.745Z,7.55
2023-03-11T02:20:47.406Z,7.53
2023-03-11T02:23:18.206Z,7.50
2023-03-11T02:26:09.804Z,7.49
2023-03-11T02:28:40.988Z,7.54
2023-03-11T02:31:10.684Z,7.61
2023-03-11T02:33:39.821Z,7.65
2023-03-11T02:36:32.885Z,7.66
2023-03-11T02:39:02.123Z,7.66
2023-03-11T02:41:33.917Z,7.67
2023-03-11T02:44:03.406Z,7.71
2023-03-11T02:46:32.424Z,7.72
2023-03-11T02:49:02.113Z,7.71
2023-03-11T02:51:30.741Z,7.71
2023-03-11T02:54:03.656Z,7.74
2023-03-11T02:56:32.550Z,7.73
2023-03-11T02:59:01.775Z,7.73
2023-03-11T03:01:30.490Z,7.70
2023-03-11T03:03:59.271Z,7.71
2023-03-11T03:06:28.888Z,7.71
2023-03-11T03:08:57.841Z,7.69
2023-03-11T03:11:26.677Z,7.67
2023-03-11T03:13:55.207Z,7.64
2023-03-11T03:16:23.707Z,7.65
2023-03-11T03:18:52.820Z,7.66
2023-03-11T03:21:21.364Z,7.66
2023-03-11T03:23:49.991Z,7.65
2023-03-11T03:26:18.549Z,7.63
2023-03-11T03:28:48.553Z,7.62
2023-03-11T03:31:18.375Z,7.60
2023-03-11T03:33:47.162Z,7.61
2023-03-11T03:36:16.395Z,7.60
2023-03-11T03:38:48.648Z,7.57
2023-03-11T03:41:17.777Z,7.57
2023-03-11T03:43:46.486Z,7.60
2023-03-11T03:46:15.743Z,7.64
2023-03-11T03:48:46.898Z,7.70
2023-03-11T03:51:15.713Z,7.78
2023-03-11T03:53:52.111Z,7.83
2023-03-11T03:56:20.632Z,7.87
2023-03-11T03:58:49.066Z,7.91
2023-03-11T04:01:17.558Z,7.95
2023-03-11T04:03:46.108Z,7.97
2023-03-11T04:06:19.894Z,7.99
2023-03-11T04:08:52.349Z,8.02
2023-03-11T04:11:22.690Z,8.03
2023-03-11T04:13:51.432Z,8.05
2023-03-11T04:16:22.574Z,8.04
2023-03-11T04:18:51.828Z,8.03
2023-03-11T04:21:20.951Z,8.03
2023-03-11T04:23:49.787Z,8.04
2023-03-11T04:26:18.726Z,8.02
2023-03-11T04:28:47.352Z,8.00
2023-03-11T04:31:16.320Z,8.00
2023-03-11T04:33:44.794Z,7.98
2023-03-11T04:36:14.113Z,8.01
2023-03-11T04:38:42.938Z,7.97
2023-03-11T04:41:12.422Z,7.93
2023-03-11T04:43:42.199Z,7.90
2023-03-11T04:46:10.783Z,7.85
2023-03-11T04:48:39.928Z,7.80
2023-03-11T04:51:10.002Z,7.74
2023-03-11T04:53:38.840Z,7.72
2023-03-11T04:56:08.288Z,7.70
2023-03-11T04:58:38.421Z,7.67
2023-03-11T05:01:07.829Z,7.61
2023-03-11T05:03:37.175Z,7.54
2023-03-11T05:06:05.987Z,7.46
2023-03-11T05:08:35.107Z,7.43
2023-03-11T05:11:04.356Z,7.39
2023-03-11T05:13:33.592Z,7.35
2023-03-11T05:16:02.629Z,7.30
2023-03-11T05:18:32.652Z,7.28
2023-03-11T05:21:01.323Z,7.28
2023-03-11T05:23:31.866Z,7.27
2023-03-11T05:26:01.057Z,7.27
2023-03-11T05:28:30.019Z,7.28
2023-03-11T05:30:58.614Z,7.30
2023-03-11T05:33:27.102Z,7.30
2023-03-11T05:35:55.689Z,7.28
2023-03-11T05:38:24.930Z,7.24
2023-03-11T05:40:53.913Z,7.20
2023-03-11T05:43:22.348Z,7.16
2023-03-11T05:45:54.631Z,7.13
2023-03-11T05:48:23.616Z,7.09
2023-03-11T05:50:52.082Z,7.05
2023-03-11T05:53:21.963Z,7.02
2023-03-11T05:56:00.728Z,6.98
2023-03-11T05:58:30.167Z,6.94
2023-03-11T06:01:00.332Z,6.94
2023-03-11T06:03:28.848Z,6.91
2023-03-11T06:05:57.269Z,6.90
2023-03-11T06:08:25.747Z,6.90
2023-03-11T06:11:05.252Z,6.90
2023-03-11T06:13:35.010Z,6.90
2023-03-11T06:16:05.359Z,6.91
2023-03-11T06:18:34.887Z,6.91
2023-03-11T06:21:04.369Z,6.91
2023-03-11T06:23:33.567Z,6.89
2023-03-11T06:26:05.290Z,6.90
2023-03-11T06:28:37.717Z,6.92
2023-03-11T06:31:26.429Z,6.92
2023-03-11T06:33:56.816Z,6.94
2023-03-11T06:36:26.437Z,6.96
2023-03-11T06:38:55.461Z,6.95
2023-03-11T06:41:26.048Z,6.94
2023-03-11T06:43:55.012Z,6.95
2023-03-11T06:46:24.044Z,6.96
2023-03-11T06:48:54.734Z,6.98
2023-03-11T06:51:24.046Z,7.01
2023-03-11T06:53:53.554Z,7.06
2023-03-11T06:56:23.967Z,7.11
2023-03-11T06:59:00.529Z,7.14
2023-03-11T07:01:33.073Z,7.20
2023-03-11T07:04:03.581Z,7.24
2023-03-11T07:06:32.138Z,7.28
2023-03-11T07:09:08.226Z,7.30
2023-03-11T07:11:39.015Z,7.35
2023-03-11T07:14:23.383Z,7.37
2023-03-11T07:16:54.831Z,7.40
2023-03-11T07:19:28.394Z,7.43
2023-03-11T07:21:56.910Z,7.43
2023-03-11T07:24:25.240Z,7.46
2023-03-11T07:26:53.605Z,7.47
2023-03-11T07:29:22.008Z,7.49
2023-03-11T07:31:50.470Z,7.52
2023-03-11T07:34:19.038Z,7.56
2023-03-11T07:36:47.561Z,7.60
2023-03-11T07:39:18.876Z,7.67
2023-03-11T07:41:47.771Z,7.76
2023-03-11T07:44:18.196Z,7.85
2023-03-11T07:46:47.282Z,7.94
2023-03-11T07:49:16.450Z,8.02
2023-03-11T07:51:45.053Z,8.11
2023-03-11T07:54:14.016Z,8.19
2023-03-11T07:56:42.526Z,8.29
2023-03-11T07:59:11.089Z,8.55
2023-03-11T08:01:41.497Z,8.99
2023-03-11T08:04:14.454Z,9.47
2023-03-11T08:06:46.171Z,9.90
2023-03-11T08:09:15.163Z,10.22
2023-03-11T08:11:43.652Z,10.54
2023-03-11T08:14:12.093Z,10.84
2023-03-11T08:16:41.365Z,11.09
2023-03-11T08:19:12.722Z,11.28
2023-03-11T08:21:41.175Z,11.40
2023-03-11T08:24:14.215Z,11.52
2023-03-11T08:26:42.848Z,11.66
2023-03-11T08:29:11.394Z,11.72
2023-03-11T08:31:39.860Z,11.81
2023-03-11T08:34:10.904Z,11.89
2023-03-11T08:36:39.336Z,12.01
2023-03-11T08:39:08.100Z,12.18
2023-03-11T08:41:36.578Z,12.41
2023-03-11T08:44:05.490Z,12.60
2023-03-11T08:46:38.799Z,12.59
2023-03-11T08:49:07.621Z,12.65
2023-03-11T08:51:36.805Z,12.64
2023-03-11T08:54:06.219Z,12.51
2023-03-11T08:56:34.643Z,12.46
2023-03-11T08:59:03.359Z,12.38
2023-03-11T09:01:31.805Z,12.24
2023-03-11T09:04:00.288Z,12.18
2023-03-11T09:06:30.611Z,12.27
2023-03-11T09:08:59.217Z,12.34
2023-03-11T09:11:27.665Z,12.31
2023-03-11T09:13:56.027Z,12.24
2023-03-11T09:16:25.632Z,12.29
2023-03-11T09:18:54.177Z,12.30
2023-03-11T09:21:22.978Z,12.30
2023-03-11T09:23:51.456Z,12.38
2023-03-11T09:26:19.904Z,12.42
2023-03-11T09:28:49.580Z,12.45
2023-03-11T09:31:18.454Z,12.40
2023-03-11T09:33:47.684Z,12.43
2023-03-11T09:36:19.007Z,12.56
2023-03-11T09:38:48.521Z,12.79
2023-03-11T09:41:27.470Z,13.01
2023-03-11T09:44:16.318Z,13.17
2023-03-11T09:47:19.721Z,13.38
2023-03-11T09:50:15.341Z,13.72
2023-03-11T09:53:05.214Z,14.03
2023-03-11T09:56:01.856Z,14.48
2023-03-11T09:58:50.800Z,14.77
2023-03-11T10:01:35.295Z,14.80
2023-03-11T10:04:16.897Z,14.87
2023-03-11T10:06:48.120Z,15.00
2023-03-11T10:09:51.909Z,15.00
2023-03-11T10:12:29.191Z,14.80
2023-03-11T10:15:39.660Z,14.58
2023-03-11T10:18:31.542Z,14.29
2023-03-11T10:21:36.407Z,13.94
2023-03-11T10:24:19.213Z,13.58
2023-03-11T10:26:57.034Z,13.35
2023-03-11T10:30:04.257Z,13.20
2023-03-11T10:32:46.874Z,13.39
2023-03-11T10:35:39.719Z,13.69
2023-03-11T10:38:20.814Z,14.04
2023-03-11T10:40:54.106Z,14.15
2023-03-11T10:43:46.068Z,13.85
2023-03-11T10:46:26.680Z,13.39
2023-03-11T10:48:55.634Z,13.34
2023-03-11T10:51:35.491Z,13.46
2023-03-11T10:54:04.871Z,13.52
2023-03-11T10:56:37.674Z,13.33
2023-03-11T10:59:24.312Z,13.21
2023-03-11T11:02:00.927Z,13.25
2023-03-11T11:04:36.502Z,13.35
2023-03-11T11:07:29.975Z,13.42
2023-03-11T11:10:21.516Z,13.27
2023-03-11T11:13:19.378Z,13.11
2023-03-11T11:15:55.683Z,12.95
2023-03-11T11:18:29.263Z,12.81
2023-03-11T11:21:26.360Z,12.83
2023-03-11T11:24:12.395Z,12.96
2023-03-11T11:26:40.789Z,13.00
2023-03-11T11:29:12.514Z,13.14
2023-03-11T11:31:46.453Z,13.17
2023-03-11T11:34:35.010Z,12.99
2023-03-11T11:37:05.925Z,12.60
2023-03-11T11:39:59.757Z,12.24
2023-03-11T11:42:31.354Z,11.75
2023-03-11T11:45:04.715Z,11.44
2023-03-11T11:47:39.719Z,11.17
2023-03-11T11:50:16.584Z,10.99
2023-03-11T11:52:51.495Z,10.86
2023-03-11T11:55:25.590Z,10.71
2023-03-11T11:57:54.414Z,10.63
2023-03-11T12:00:31.143Z,10.51
2023-03-11T12:03:27.357Z,10.38
2023-03-11T12:06:06.319Z,10.16
2023-03-11T12:09:17.460Z,10.01
2023-03-11T12:11:52.658Z,9.87
2023-03-11T12:14:31.388Z,9.71
2023-03-11T12:17:04.022Z,9.59
2023-03-11T12:19:40.334Z,9.52
2023-03-11T12:22:39.162Z,9.54
2023-03-11T12:25:44.254Z,9.67
2023-03-11T12:28:12.622Z,10.12
2023-03-11T12:30:51.058Z,10.42
2023-03-11T12:33:42.556Z,10.60
2023-03-11T12:36:35.705Z,10.64
2023-03-11T12:39:07.336Z,10.69
2023-03-11T12:41:42.265Z,10.82
2023-03-11T12:44:30.855Z,10.88
2023-03-11T12:47:02.748Z,11.15
2023-03-11T12:49:33.894Z,11.45
2023-03-11T12:52:11.820Z,11.67
2023-03-11T12:54:45.784Z,11.77
2023-03-11T12:57:20.326Z,11.61
2023-03-11T13:00:09.991Z,11.36
2023-03-11T13:03:13.812Z,11.14
2023-03-11T13:05:52.237Z,10.99
2023-03-11T13:08:48.797Z,10.82
2023-03-11T13:11:48.213Z,10.70
2023-03-11T13:14:35.755Z,10.53
2023-03-11T13:17:25.960Z,10.17
2023-03-11T13:19:57.075Z,9.92
2023-03-11T13:22:52.753Z,9.70
2023-03-11T13:25:32.224Z,9.42
2023-03-11T13:28:27.455Z,9.14
2023-03-11T13:31:26.315Z,8.65
2023-03-11T13:33:56.255Z,8.40
2023-03-11T13:36:46.213Z,8.32
2023-03-11T13:39:36.933Z,8.20
2023-03-11T13:42:17.867Z,8.10
2023-03-11T13:44:47.737Z,8.02
2023-03-11T13:47:19.308Z,7.94
2023-03-11T13:49:50.794Z,7.78
2023-03-11T13:52:26.653Z,7.59
2023-03-11T13:55:08.359Z,7.30
2023-03-11T13:57:38.410Z,7.09
2023-03-11T14:00:17.744Z,6.92
2023-03-11T14:02:55.381Z,6.75
2023-03-11T14:05:29.591Z,6.48
2023-03-11T14:08:23.538Z,6.26
2023-03-11T14:10:56.820Z,6.13
2023-03-11T14:13:30.008Z,6.03
2023-03-11T14:15:58.353Z,6.00
2023-03-11T14:18:28.204Z,6.21
2023-03-11T14:20:57.534Z,6.45
2023-03-11T14:23:48.975Z,6.66
2023-03-11T14:26:22.484Z,6.87
2023-03-11T14:28:57.277Z,6.94
2023-03-11T14:31:40.915Z,6.94
2023-03-11T14:34:20.859Z,6.97
2023-03-11T14:36:54.454Z,6.99
2023-03-11T14:39:30.282Z,7.01
2023-03-11T14:42:07.912Z,6.88
2023-03-11T14:44:40.703Z,6.80
2023-03-11T14:47:32.253Z,6.72
2023-03-11T14:50:01.332Z,6.66
2023-03-11T14:52:37.461Z,6.57
2023-03-11T14:55:27.136Z,6.49
2023-03-11T14:58:18.822Z,6.44
2023-03-11T15:00:54.163Z,6.39
2023-03-11T15:03:23.995Z,6.33
2023-03-11T15:05:58.656Z,6.34
2023-03-11T15:08:31.242Z,6.38
2023-03-11T15:11:06.391Z,6.40
2023-03-11T15:13:36.762Z,6.33
2023-03-11T15:16:08.040Z,6.20
2023-03-11T15:18:38.166Z,6.01
2023-03-11T15:21:20.143Z,5.87
2023-03-11T15:23:56.855Z,5.63
2023-03-11T15:26:28.616Z,5.39
2023-03-11T15:28:58.584Z,5.16
2023-03-11T15:31:31.525Z,5.00
2023-03-11T15:34:23.909Z,4.84
2023-03-11T15:36:53.060Z,4.63
2023-03-11T15:39:33.214Z,4.49
2023-03-11T15:42:07.504Z,4.40
2023-03-11T15:44:41.599Z,4.28
2023-03-11T15:47:15.250Z,4.19
2023-03-11T15:49:44.180Z,4.13
2023-03-11T15:52:13.126Z,4.10
2023-03-11T15:54:42.255Z,4.05
2023-03-11T15:57:22.930Z,3.99
2023-03-11T15:59:53.651Z,3.97
2023-03-11T16:02:24.861Z,3.96
2023-03-11T16:04:53.429Z,3.94
2023-03-11T16:07:36.757Z,3.89
2023-03-11T16:10:08.927Z,3.85
2023-03-11T16:12:37.905Z,3.80
2023-03-11T16:15:07.490Z,3.80
2023-03-11T16:17:49.010Z,3.81
2023-03-11T16:20:20.082Z,3.78
2023-03-11T16:22:50.571Z,3.76
2023-03-11T16:25:26.750Z,3.74
2023-03-11T16:27:56.658Z,3.72
2023-03-11T16:30:27.588Z,3.73
2023-03-11T16:32:55.899Z,3.74
2023-03-11T16:35:24.722Z,3.74
2023-03-11T16:37:53.686Z,3.74
2023-03-11T16:40:27.557Z,3.74
2023-03-11T16:43:02.484Z,3.73
2023-03-11T16:45:31.214Z,3.72
2023-03-11T16:47:59.743Z,3.75
2023-03-11T16:50:28.237Z,3.73
2023-03-11T16:52:57.591Z,3.70
2023-03-11T16:55:27.867Z,3.67
2023-03-11T16:57:57.618Z,3.61
2023-03-11T17:00:26.260Z,3.57
2023-03-11T17:02:54.605Z,3.52
2023-03-11T17:05:23.251Z,3.47
2023-03-11T17:08:00.329Z,3.42
2023-03-11T17:10:29.224Z,3.39
2023-03-11T17:12:57.723Z,3.36
2023-03-11T17:15:26.068Z,3.34
2023-03-11T17:17:54.806Z,3.29
2023-03-11T17:20:23.476Z,3.26
2023-03-11T17:22:51.890Z,3.24
2023-03-11T17:25:20.385Z,3.23
2023-03-11T17:27:49.032Z,3.20
2023-03-11T17:30:30.448Z,3.20
2023-03-11T17:33:04.726Z,3.15
2023-03-11T17:35:33.195Z,3.12
2023-03-11T17:38:01.625Z,3.13
2023-03-11T17:40:31.755Z,3.12
2023-03-11T17:43:00.680Z,3.09
2023-03-11T17:45:29.156Z,3.06
2023-03-11T17:47:57.505Z,3.09
2023-03-11T17:50:26.588Z,3.10
2023-03-11T17:52:56.673Z,3.09
2023-03-11T17:55:25.133Z,3.09
2023-03-11T17:57:53.636Z,3.10
2023-03-11T18:00:22.602Z,3.10
2023-03-11T18:02:53.793Z,3.11
2023-03-11T18:05:22.374Z,3.12
2023-03-11T18:07:50.888Z,3.11
2023-03-11T18:10:19.542Z,3.11
2023-03-11T18:12:48.344Z,3.11
2023-03-11T18:15:19.597Z,3.13
2023-03-11T18:17:48.908Z,3.15
2023-03-11T18:20:17.535Z,3.18
2023-03-11T18:22:47.265Z,3.21
2023-03-11T18:25:15.876Z,3.23
2023-03-11T18:27:44.764Z,3.24
2023-03-11T18:30:14.620Z,3.25
2023-03-11T18:32:43.181Z,3.23
2023-03-11T18:35:11.763Z,3.24
2023-03-11T18:37:40.960Z,3.26
2023-03-11T18:40:10.440Z,3.26
2023-03-11T18:42:38.742Z,3.27
2023-03-11T18:45:07.612Z,3.24
2023-03-11T18:47:35.985Z,3.23
2023-03-11T18:50:05.398Z,3.20
2023-03-11T18:52:33.755Z,3.20
2023-03-11T18:55:02.129Z,3.21
2023-03-11T18:57:30.528Z,3.19
2023-03-11T18:59:58.857Z,3.20
2023-03-11T19:02:27.262Z,3.18
2023-03-11T19:04:55.794Z,3.17
2023-03-11T19:07:24.215Z,3.17
2023-03-11T19:09:52.540Z,3.12
2023-03-11T19:12:20.932Z,3.08
2023-03-11T19:14:49.282Z,3.08
2023-03-11T19:17:18.461Z,3.08
2023-03-11T19:19:47.060Z,3.08
2023-03-11T19:22:15.572Z,3.06
2023-03-11T19:24:43.959Z,3.04
2023-03-11T19:27:12.373Z,3.03
2023-03-11T19:29:40.878Z,3.04
2023-03-11T19:32:09.289Z,3.02
2023-03-11T19:34:38.590Z,3.02
2023-03-11T19:37:07.064Z,3.02
2023-03-11T19:39:35.448Z,3.04
2023-03-11T19:42:03.830Z,3.03
2023-03-11T19:44:32.221Z,3.01
2023-03-11T19:47:00.724Z,3.00
2023-03-11T19:49:29.140Z,3.02
2023-03-11T19:51:57.657Z,3.02
2023-03-11T19:54:26.113Z,3.01
2023-03-11T19:56:54.539Z,2.97
2023-03-11T19:59:23.698Z,2.93
2023-03-11T20:01:52.110Z,2.92
2023-03-11T20:04:20.606Z,2.90
2023-03-11T20:06:49.093Z,2.89
2023-03-11T20:09:17.950Z,2.89
2023-03-11T20:11:46.540Z,2.86
2023-03-11T20:14:15.158Z,2.83
2023-03-11T20:16:43.696Z,2.82
2023-03-11T20:19:12.914Z,2.79
2023-03-11T20:21:42.057Z,2.75
2023-03-11T20:24:11.451Z,2.72
2023-03-11T20:26:39.893Z,2.66
2023-03-11T20:29:08.379Z,2.57
2023-03-11T20:31:37.275Z,2.46
2023-03-11T20:34:05.873Z,2.38
2023-03-11T20:36:34.623Z,2.31
2023-03-11T20:39:06.435Z,2.25
2023-03-11T20:41:39.217Z,2.22
2023-03-11T20:44:11.180Z,2.17
2023-03-11T20:46:40.086Z,2.12
2023-03-11T20:49:08.781Z,2.07
2023-03-11T20:51:40.291Z,2.03
2023-03-11T20:54:29.965Z,1.94
2023-03-11T20:56:58.436Z,1.85
2023-03-11T20:59:27.014Z,1.79
2023-03-11T21:01:55.520Z,1.76
2023-03-11T21:04:24.821Z,1.73
2023-03-11T21:06:55.009Z,1.67
2023-03-11T21:09:24.211Z,1.62
2023-03-11T21:11:52.734Z,1.53
2023-03-11T21:14:21.154Z,1.45
2023-03-11T21:16:49.918Z,1.40
2023-03-11T21:19:18.672Z,1.34
2023-03-11T21:21:47.406Z,1.30
2023-03-11T21:24:16.256Z,1.26
2023-03-11T21:26:45.319Z,1.24
2023-03-11T21:29:14.233Z,1.22
2023-03-11T21:31:42.973Z,1.20
2023-03-11T21:34:12.108Z,1.21
2023-03-11T21:36:40.823Z,1.23
2023-03-11T21:39:10.378Z,1.23
2023-03-11T21:41:40.124Z,1.21
2023-03-11T21:44:08.845Z,1.20
2023-03-11T21:46:37.314Z,1.18
2023-03-11T21:49:06.089Z,1.18
2023-03-11T21:51:34.659Z,1.14
2023-03-11T21:54:05.445Z,1.12
2023-03-11T21:56:33.866Z,1.11
2023-03-11T21:59:03.988Z,1.10
2023-03-11T22:01:34.154Z,1.05
2023-03-11T22:04:03.027Z,1.05
2023-03-11T22:06:33.574Z,1.05
2023-03-11T22:09:03.982Z,1.01
2023-03-11T22:11:32.599Z,0.96
2023-03-11T22:14:01.380Z,0.93
2023-03-11T22:16:30.381Z,0.90
2023-03-11T22:18:58.856Z,0.90
2023-03-11T22:21:27.423Z,0.92
2023-03-11T22:23:55.847Z,0.94
2023-03-11T22:26:24.231Z,0.95
2023-03-11T22:28:52.635Z,0.97
2023-03-11T22:31:21.005Z,0.96
2023-03-11T22:33:49.745Z,0.97
2023-03-11T22:36:18.208Z,0.96
2023-03-11T22:38:46.767Z,0.93
2023-03-11T22:41:19.266Z,0.92
2023-03-11T22:43:47.937Z,0.92
2023-03-11T22:46:16.702Z,0.90
2023-03-11T22:48:45.074Z,0.88
2023-03-11T22:51:13.490Z,0.85
2023-03-11T22:53:42.589Z,0.84
2023-03-11T22:56:14.533Z,0.79
2023-03-11T22:58:43.007Z,0.79
2023-03-11T23:01:11.879Z,0.76
2023-03-11T23:03:40.628Z,0.75
2023-03-11T23:06:15.076Z,0.73
2023-03-11T23:08:43.663Z,0.71
2023-03-11T23:11:15.838Z,0.70
2023-03-11T23:13:44.683Z,0.71
2023-03-11T23:16:19.050Z,0.71
2023-03-11T23:18:50.274Z,0.71
2023-03-11T23:21:22.935Z,0.71
2023-03-11T23:23:52.104Z,0.68
2023-03-11T23:26:22.137Z,0.69
2023-03-11T23:28:53.911Z,0.68
2023-03-11T23:31:24.853Z,0.68
2023-03-11T23:33:53.118Z,0.67
2023-03-11T23:36:23.526Z,0.65
2023-03-11T23:38:52.065Z,0.63
2023-03-11T23:41:21.678Z,0.57
2023-03-11T23:43:50.863Z,0.55
2023-03-11T23:46:19.282Z,0.53
2023-03-11T23:48:47.721Z,0.53
2023-03-11T23:51:16.824Z,0.54
2023-03-11T23:53:45.226Z,0.53
2023-03-11T23:56:17.266Z,0.49
2023-03-11T23:58:46.378Z,0.46
